sensor_id;sensor_type;location;lat;lon;timestamp;temperature;humidity
5850;DHT22;2951;47.712;9.400;2023-04-30T00:02:16;12.30;99.90
5850;DHT22;2951;47.712;9.400;2023-04-30T00:04:42;12.30;99.90
5850;DHT22;2951;47.712;9.400;2023-04-30T00:07:09;12.30;99.90
5850;DHT22;2951;47.712;9.400;2023-04-30T00:09:36;12.30;99.90
5850;DHT22;2951;47.712;9.400;2023-04-30T00:12:02;12.30;99.90
5850;DHT22;2951;47.712;9.400;2023-04-30T00:14:29;12.30;99.90
5850;DHT22;2951;47.712;9.400;2023-04-30T00:16:56;12.30;99.90
5850;DHT22;2951;47.712;9.400;2023-04-30T00:19:23;12.20;99.90
5850;DHT22;2951;47.712;9.400;2023-04-30T00:21:49;12.30;99.90
5850;DHT22;2951;47.712;9.400;2023-04-30T00:24:16;12.20;99.90
5850;DHT22;2951;47.712;9.400;2023-04-30T00:26:43;12.20;99.90
5850;DHT22;2951;47.712;9.400;2023-04-30T00:29:10;12.20;99.90
5850;DHT22;2951;47.712;9.400;2023-04-30T00:31:36;12.20;99.90
5850;DHT22;2951;47.712;9.400;2023-04-30T00:34:03;12.30;99.90
5850;DHT22;2951;47.712;9.400;2023-04-30T00:36:30;12.20;99.90
5850;DHT22;2951;47.712;9.400;2023-04-30T00:38:57;12.20;99.90
5850;DHT22;2951;47.712;9.400;2023-04-30T00:41:24;12.20;99.90
5850;DHT22;2951;47.712;9.400;2023-04-30T00:43:51;12.20;99.90
5850;DHT22;2951;47.712;9.400;2023-04-30T00:46:17;12.20;99.90
5850;DHT22;2951;47.712;9.400;2023-04-30T00:48:44;12.20;99.90
5850;DHT22;2951;47.712;9.400;2023-04-30T00:51:11;12.30;99.90
5850;DHT22;2951;47.712;9.400;2023-04-30T00:53:38;12.20;99.90
5850;DHT22;2951;47.712;9.400;2023-04-30T00:56:05;12.20;99.90
5850;DHT22;2951;47.712;9.400;2023-04-30T00:58:34;12.20;99.90
5850;DHT22;2951;47.712;9.400;2023-04-30T01:01:01;12.10;99.90
5850;DHT22;2951;47.712;9.400;2023-04-30T01:03:29;12.10;99.90
5850;DHT22;2951;47.712;9.400;2023-04-30T01:05:55;12.10;99.90
5850;DHT22;2951;47.712;9.400;2023-04-30T01:08:22;12.10;99.90
5850;DHT22;2951;47.712;9.400;2023-04-30T01:13:27;12.00;99.90
5850;DHT22;2951;47.712;9.400;2023-04-30T01:18:30;11.90;99.90
5850;DHT22;2951;47.712;9.400;2023-04-30T01:21:00;11.80;99.90
5850;DHT22;2951;47.712;9.400;2023-04-30T01:28:45;11.70;99.90
5850;DHT22;2951;47.712;9.400;2023-04-30T01:31:17;11.60;99.90
5850;DHT22;2951;47.712;9.400;2023-04-30T01:33:44;11.60;99.90
5850;DHT22;2951;47.712;9.400;2023-04-30T01:36:25;11.60;99.90
5850;DHT22;2951;47.712;9.400;2023-04-30T01:39:01;11.50;99.90
5850;DHT22;2951;47.712;9.400;2023-04-30T01:41:33;11.50;99.90
5850;DHT22;2951;47.712;9.400;2023-04-30T01:46:54;11.40;99.90
5850;DHT22;2951;47.712;9.400;2023-04-30T01:51:48;11.40;99.90
5850;DHT22;2951;47.712;9.400;2023-04-30T01:54:22;11.30;99.90
5850;DHT22;2951;47.712;9.400;2023-04-30T01:57:00;11.30;99.90
5850;DHT22;2951;47.712;9.400;2023-04-30T01:59:30;11.30;99.90
5850;DHT22;2951;47.712;9.400;2023-04-30T02:01:57;11.20;99.90
5850;DHT22;2951;47.712;9.400;2023-04-30T02:04:24;11.20;99.90
5850;DHT22;2951;47.712;9.400;2023-04-30T02:06:50;11.20;99.90
5850;DHT22;2951;47.712;9.400;2023-04-30T02:09:17;11.20;99.90
5850;DHT22;2951;47.712;9.400;2023-04-30T02:11:44;11.20;99.90
5850;DHT22;2951;47.712;9.400;2023-04-30T02:14:10;11.10;99.90
5850;DHT22;2951;47.712;9.400;2023-04-30T02:16:37;11.10;99.90
5850;DHT22;2951;47.712;9.400;2023-04-30T02:19:04;11.10;99.90
5850;DHT22;2951;47.712;9.400;2023-04-30T02:21:30;11.10;99.90
5850;DHT22;2951;47.712;9.400;2023-04-30T02:23:57;11.10;99.90
5850;DHT22;2951;47.712;9.400;2023-04-30T02:26:23;11.10;99.90
5850;DHT22;2951;47.712;9.400;2023-04-30T02:28:51;11.00;99.90
5850;DHT22;2951;47.712;9.400;2023-04-30T02:31:18;11.00;99.90
5850;DHT22;2951;47.712;9.400;2023-04-30T02:33:45;11.00;99.90
5850;DHT22;2951;47.712;9.400;2023-04-30T02:36:11;11.10;99.90
5850;DHT22;2951;47.712;9.400;2023-04-30T02:38:38;11.00;99.90
5850;DHT22;2951;47.712;9.400;2023-04-30T02:41:05;11.00;99.90
5850;DHT22;2951;47.712;9.400;2023-04-30T02:43:31;11.00;99.90
5850;DHT22;2951;47.712;9.400;2023-04-30T02:45:58;11.00;99.90
5850;DHT22;2951;47.712;9.400;2023-04-30T02:48:25;11.00;99.90
5850;DHT22;2951;47.712;9.400;2023-04-30T02:50:52;11.00;99.90
5850;DHT22;2951;47.712;9.400;2023-04-30T02:53:18;10.90;99.90
5850;DHT22;2951;47.712;9.400;2023-04-30T02:55:45;10.90;99.90
5850;DHT22;2951;47.712;9.400;2023-04-30T02:58:12;10.90;99.90
5850;DHT22;2951;47.712;9.400;2023-04-30T03:00:38;10.90;99.90
5850;DHT22;2951;47.712;9.400;2023-04-30T03:03:05;10.80;99.90
5850;DHT22;2951;47.712;9.400;2023-04-30T03:05:32;10.90;99.90
5850;DHT22;2951;47.712;9.400;2023-04-30T03:07:59;10.80;99.90
5850;DHT22;2951;47.712;9.400;2023-04-30T03:10:25;10.90;99.90
5850;DHT22;2951;47.712;9.400;2023-04-30T03:12:52;10.80;99.90
5850;DHT22;2951;47.712;9.400;2023-04-30T03:15:19;10.80;99.90
5850;DHT22;2951;47.712;9.400;2023-04-30T03:17:46;10.80;99.90
5850;DHT22;2951;47.712;9.400;2023-04-30T03:20:12;10.80;99.90
5850;DHT22;2951;47.712;9.400;2023-04-30T03:22:39;10.80;99.90
5850;DHT22;2951;47.712;9.400;2023-04-30T03:25:07;10.80;99.90
5850;DHT22;2951;47.712;9.400;2023-04-30T03:27:34;10.80;99.90
5850;DHT22;2951;47.712;9.400;2023-04-30T03:30:00;10.80;99.90
5850;DHT22;2951;47.712;9.400;2023-04-30T03:32:27;10.70;99.90
5850;DHT22;2951;47.712;9.400;2023-04-30T03:34:54;10.70;99.90
5850;DHT22;2951;47.712;9.400;2023-04-30T03:37:20;10.80;99.90
5850;DHT22;2951;47.712;9.400;2023-04-30T03:39:47;10.80;99.90
5850;DHT22;2951;47.712;9.400;2023-04-30T03:42:15;10.80;99.90
5850;DHT22;2951;47.712;9.400;2023-04-30T03:44:42;10.80;99.90
5850;DHT22;2951;47.712;9.400;2023-04-30T03:47:09;10.80;99.90
5850;DHT22;2951;47.712;9.400;2023-04-30T03:49:35;10.90;99.90
5850;DHT22;2951;47.712;9.400;2023-04-30T03:52:02;10.90;99.90
5850;DHT22;2951;47.712;9.400;2023-04-30T03:54:30;10.90;99.90
5850;DHT22;2951;47.712;9.400;2023-04-30T03:56:59;10.80;99.90
5850;DHT22;2951;47.712;9.400;2023-04-30T03:59:25;10.80;99.90
5850;DHT22;2951;47.712;9.400;2023-04-30T04:01:52;10.80;99.90
5850;DHT22;2951;47.712;9.400;2023-04-30T04:04:19;10.80;99.90
5850;DHT22;2951;47.712;9.400;2023-04-30T04:06:46;10.80;99.90
5850;DHT22;2951;47.712;9.400;2023-04-30T04:09:12;10.90;99.90
5850;DHT22;2951;47.712;9.400;2023-04-30T04:11:39;11.00;99.90
5850;DHT22;2951;47.712;9.400;2023-04-30T04:14:05;10.90;99.90
5850;DHT22;2951;47.712;9.400;2023-04-30T04:16:32;11.00;99.90
5850;DHT22;2951;47.712;9.400;2023-04-30T04:18:59;11.00;99.90
5850;DHT22;2951;47.712;9.400;2023-04-30T04:21:26;11.10;99.90
5850;DHT22;2951;47.712;9.400;2023-04-30T04:23:54;11.10;99.90
5850;DHT22;2951;47.712;9.400;2023-04-30T04:26:21;11.10;99.90
5850;DHT22;2951;47.712;9.400;2023-04-30T04:28:50;11.00;99.90
5850;DHT22;2951;47.712;9.400;2023-04-30T04:31:17;11.10;99.90
5850;DHT22;2951;47.712;9.400;2023-04-30T04:33:43;11.10;99.90
5850;DHT22;2951;47.712;9.400;2023-04-30T04:36:10;11.10;99.90
5850;DHT22;2951;47.712;9.400;2023-04-30T04:38:37;11.20;99.90
5850;DHT22;2951;47.712;9.400;2023-04-30T04:41:03;11.20;99.90
5850;DHT22;2951;47.712;9.400;2023-04-30T04:43:30;11.10;99.90
5850;DHT22;2951;47.712;9.400;2023-04-30T04:45:56;11.20;99.90
5850;DHT22;2951;47.712;9.400;2023-04-30T04:48:23;11.10;99.90
5850;DHT22;2951;47.712;9.400;2023-04-30T04:50:50;11.10;99.90
5850;DHT22;2951;47.712;9.400;2023-04-30T04:53:17;11.10;99.90
5850;DHT22;2951;47.712;9.400;2023-04-30T04:55:43;11.20;99.90
5850;DHT22;2951;47.712;9.400;2023-04-30T04:58:10;11.10;99.90
5850;DHT22;2951;47.712;9.400;2023-04-30T05:00:37;11.00;99.90
5850;DHT22;2951;47.712;9.400;2023-04-30T05:03:04;11.10;99.90
5850;DHT22;2951;47.712;9.400;2023-04-30T05:05:31;11.10;99.90
5850;DHT22;2951;47.712;9.400;2023-04-30T05:07:57;11.10;99.90
5850;DHT22;2951;47.712;9.400;2023-04-30T05:10:24;11.10;99.90
5850;DHT22;2951;47.712;9.400;2023-04-30T05:12:50;11.20;99.90
5850;DHT22;2951;47.712;9.400;2023-04-30T05:15:17;11.20;99.90
5850;DHT22;2951;47.712;9.400;2023-04-30T05:17:44;11.20;99.90
5850;DHT22;2951;47.712;9.400;2023-04-30T05:20:11;11.20;99.90
5850;DHT22;2951;47.712;9.400;2023-04-30T05:22:38;11.20;99.90
5850;DHT22;2951;47.712;9.400;2023-04-30T05:25:04;11.20;99.90
5850;DHT22;2951;47.712;9.400;2023-04-30T05:27:32;11.20;99.90
5850;DHT22;2951;47.712;9.400;2023-04-30T05:29:58;11.20;99.90
5850;DHT22;2951;47.712;9.400;2023-04-30T05:32:25;11.10;99.90
5850;DHT22;2951;47.712;9.400;2023-04-30T05:34:53;11.10;99.90
5850;DHT22;2951;47.712;9.400;2023-04-30T05:37:20;11.10;99.90
5850;DHT22;2951;47.712;9.400;2023-04-30T05:39:48;11.10;99.90
5850;DHT22;2951;47.712;9.400;2023-04-30T05:42:14;11.00;99.90
5850;DHT22;2951;47.712;9.400;2023-04-30T05:44:41;11.10;99.90
5850;DHT22;2951;47.712;9.400;2023-04-30T05:47:07;11.10;99.90
5850;DHT22;2951;47.712;9.400;2023-04-30T05:49:34;11.10;99.90
5850;DHT22;2951;47.712;9.400;2023-04-30T05:52:01;11.10;99.90
5850;DHT22;2951;47.712;9.400;2023-04-30T05:54:29;11.10;99.90
5850;DHT22;2951;47.712;9.400;2023-04-30T05:56:56;11.20;99.90
5850;DHT22;2951;47.712;9.400;2023-04-30T05:59:23;11.20;99.90
5850;DHT22;2951;47.712;9.400;2023-04-30T06:01:49;11.20;99.90
5850;DHT22;2951;47.712;9.400;2023-04-30T06:04:16;11.30;99.90
5850;DHT22;2951;47.712;9.400;2023-04-30T06:06:43;11.30;99.90
5850;DHT22;2951;47.712;9.400;2023-04-30T06:09:10;11.30;99.90
5850;DHT22;2951;47.712;9.400;2023-04-30T06:11:37;11.20;99.90
5850;DHT22;2951;47.712;9.400;2023-04-30T06:14:04;11.20;99.90
5850;DHT22;2951;47.712;9.400;2023-04-30T06:16:31;11.30;99.90
5850;DHT22;2951;47.712;9.400;2023-04-30T06:18:58;11.30;99.90
5850;DHT22;2951;47.712;9.400;2023-04-30T06:21:24;11.20;99.90
5850;DHT22;2951;47.712;9.400;2023-04-30T06:23:51;11.30;99.90
5850;DHT22;2951;47.712;9.400;2023-04-30T06:26:18;11.40;99.90
5850;DHT22;2951;47.712;9.400;2023-04-30T06:28:45;11.30;99.90
5850;DHT22;2951;47.712;9.400;2023-04-30T06:31:12;11.30;99.90
5850;DHT22;2951;47.712;9.400;2023-04-30T06:33:39;11.30;99.90
5850;DHT22;2951;47.712;9.400;2023-04-30T06:36:05;11.30;99.90
5850;DHT22;2951;47.712;9.400;2023-04-30T06:38:32;11.30;99.90
5850;DHT22;2951;47.712;9.400;2023-04-30T06:40:59;11.40;99.90
5850;DHT22;2951;47.712;9.400;2023-04-30T06:43:26;11.40;99.90
5850;DHT22;2951;47.712;9.400;2023-04-30T06:45:52;11.40;99.90
5850;DHT22;2951;47.712;9.400;2023-04-30T06:48:19;11.50;99.90
5850;DHT22;2951;47.712;9.400;2023-04-30T06:50:45;11.50;99.90
5850;DHT22;2951;47.712;9.400;2023-04-30T06:53:12;11.50;99.90
5850;DHT22;2951;47.712;9.400;2023-04-30T06:55:43;11.50;99.90
5850;DHT22;2951;47.712;9.400;2023-04-30T06:58:10;11.50;99.90
5850;DHT22;2951;47.712;9.400;2023-04-30T07:00:36;11.60;99.90
5850;DHT22;2951;47.712;9.400;2023-04-30T07:03:03;11.60;99.90
5850;DHT22;2951;47.712;9.400;2023-04-30T07:05:30;11.60;99.90
5850;DHT22;2951;47.712;9.400;2023-04-30T07:07:57;11.70;99.90
5850;DHT22;2951;47.712;9.400;2023-04-30T07:10:24;11.70;99.90
5850;DHT22;2951;47.712;9.400;2023-04-30T07:12:51;11.70;99.90
5850;DHT22;2951;47.712;9.400;2023-04-30T07:15:18;11.90;99.90
5850;DHT22;2951;47.712;9.400;2023-04-30T07:17:44;11.90;99.90
5850;DHT22;2951;47.712;9.400;2023-04-30T07:20:11;12.10;99.90
5850;DHT22;2951;47.712;9.400;2023-04-30T07:22:40;12.20;99.90
5850;DHT22;2951;47.712;9.400;2023-04-30T07:25:09;12.30;99.90
5850;DHT22;2951;47.712;9.400;2023-04-30T07:27:37;12.40;99.90
5850;DHT22;2951;47.712;9.400;2023-04-30T07:30:03;12.60;99.90
5850;DHT22;2951;47.712;9.400;2023-04-30T07:32:30;12.70;99.90
5850;DHT22;2951;47.712;9.400;2023-04-30T07:34:57;12.80;99.90
5850;DHT22;2951;47.712;9.400;2023-04-30T07:37:24;12.80;99.90
5850;DHT22;2951;47.712;9.400;2023-04-30T07:39:50;12.90;99.90
5850;DHT22;2951;47.712;9.400;2023-04-30T07:42:17;13.10;99.90
5850;DHT22;2951;47.712;9.400;2023-04-30T07:44:44;13.20;99.90
5850;DHT22;2951;47.712;9.400;2023-04-30T07:47:11;13.30;99.90
5850;DHT22;2951;47.712;9.400;2023-04-30T07:49:38;13.20;99.90
5850;DHT22;2951;47.712;9.400;2023-04-30T07:52:04;13.30;99.90
5850;DHT22;2951;47.712;9.400;2023-04-30T07:54:31;13.30;99.90
5850;DHT22;2951;47.712;9.400;2023-04-30T07:57:01;13.50;99.90
5850;DHT22;2951;47.712;9.400;2023-04-30T07:59:29;13.60;99.90
5850;DHT22;2951;47.712;9.400;2023-04-30T08:01:55;13.70;99.90
5850;DHT22;2951;47.712;9.400;2023-04-30T08:04:22;13.80;99.90
5850;DHT22;2951;47.712;9.400;2023-04-30T08:06:49;13.90;99.90
5850;DHT22;2951;47.712;9.400;2023-04-30T08:09:16;13.90;99.90
5850;DHT22;2951;47.712;9.400;2023-04-30T08:11:42;13.70;99.90
5850;DHT22;2951;47.712;9.400;2023-04-30T08:14:09;13.70;99.90
5850;DHT22;2951;47.712;9.400;2023-04-30T08:16:35;13.90;99.90
5850;DHT22;2951;47.712;9.400;2023-04-30T08:19:02;14.10;99.90
5850;DHT22;2951;47.712;9.400;2023-04-30T08:21:30;14.30;99.90
5850;DHT22;2951;47.712;9.400;2023-04-30T08:23:57;14.40;99.90
5850;DHT22;2951;47.712;9.400;2023-04-30T08:26:24;14.40;99.90
5850;DHT22;2951;47.712;9.400;2023-04-30T08:28:51;14.30;99.90
5850;DHT22;2951;47.712;9.400;2023-04-30T08:31:17;14.40;99.90
5850;DHT22;2951;47.712;9.400;2023-04-30T08:33:44;14.40;99.90
5850;DHT22;2951;47.712;9.400;2023-04-30T08:36:11;14.40;99.90
5850;DHT22;2951;47.712;9.400;2023-04-30T08:38:37;14.50;99.90
5850;DHT22;2951;47.712;9.400;2023-04-30T08:41:10;14.60;99.90
5850;DHT22;2951;47.712;9.400;2023-04-30T08:43:38;14.60;99.90
5850;DHT22;2951;47.712;9.400;2023-04-30T08:46:04;14.60;99.90
5850;DHT22;2951;47.712;9.400;2023-04-30T08:48:32;14.70;99.90
5850;DHT22;2951;47.712;9.400;2023-04-30T08:51:02;14.80;99.90
5850;DHT22;2951;47.712;9.400;2023-04-30T08:53:29;14.80;99.90
5850;DHT22;2951;47.712;9.400;2023-04-30T08:55:57;14.70;99.90
5850;DHT22;2951;47.712;9.400;2023-04-30T08:58:23;14.80;99.90
5850;DHT22;2951;47.712;9.400;2023-04-30T09:00:50;14.80;99.90
5850;DHT22;2951;47.712;9.400;2023-04-30T09:03:17;14.80;99.90
5850;DHT22;2951;47.712;9.400;2023-04-30T09:05:43;15.00;99.90
5850;DHT22;2951;47.712;9.400;2023-04-30T09:08:15;15.00;99.90
5850;DHT22;2951;47.712;9.400;2023-04-30T09:10:42;15.20;99.90
5850;DHT22;2951;47.712;9.400;2023-04-30T09:13:09;15.40;99.90
5850;DHT22;2951;47.712;9.400;2023-04-30T09:15:38;15.30;99.90
5850;DHT22;2951;47.712;9.400;2023-04-30T09:18:08;15.50;99.90
5850;DHT22;2951;47.712;9.400;2023-04-30T09:20:34;15.40;99.90
5850;DHT22;2951;47.712;9.400;2023-04-30T09:23:08;15.50;99.90
5850;DHT22;2951;47.712;9.400;2023-04-30T09:25:41;15.50;99.90
5850;DHT22;2951;47.712;9.400;2023-04-30T09:28:08;15.50;99.90
5850;DHT22;2951;47.712;9.400;2023-04-30T09:30:36;15.70;99.90
5850;DHT22;2951;47.712;9.400;2023-04-30T09:33:02;15.60;99.90
5850;DHT22;2951;47.712;9.400;2023-04-30T09:35:33;15.60;99.90
5850;DHT22;2951;47.712;9.400;2023-04-30T09:38:00;15.80;99.90
5850;DHT22;2951;47.712;9.400;2023-04-30T09:40:34;15.90;99.90
5850;DHT22;2951;47.712;9.400;2023-04-30T09:43:01;15.90;99.90
5850;DHT22;2951;47.712;9.400;2023-04-30T09:45:41;16.00;99.90
5850;DHT22;2951;47.712;9.400;2023-04-30T09:48:09;16.20;99.90
5850;DHT22;2951;47.712;9.400;2023-04-30T09:50:42;16.00;99.90
5850;DHT22;2951;47.712;9.400;2023-04-30T09:53:11;15.80;99.90
5850;DHT22;2951;47.712;9.400;2023-04-30T09:55:43;16.00;99.90
5850;DHT22;2951;47.712;9.400;2023-04-30T09:58:10;16.10;99.90
5850;DHT22;2951;47.712;9.400;2023-04-30T10:00:38;16.10;99.90
5850;DHT22;2951;47.712;9.400;2023-04-30T10:03:05;16.30;99.90
5850;DHT22;2951;47.712;9.400;2023-04-30T10:05:38;16.10;99.90
5850;DHT22;2951;47.712;9.400;2023-04-30T10:08:09;16.00;99.90
5850;DHT22;2951;47.712;9.400;2023-04-30T10:10:38;16.30;99.90
5850;DHT22;2951;47.712;9.400;2023-04-30T10:13:06;16.40;99.90
5850;DHT22;2951;47.712;9.400;2023-04-30T10:15:37;16.40;99.90
5850;DHT22;2951;47.712;9.400;2023-04-30T10:18:06;16.60;99.90
5850;DHT22;2951;47.712;9.400;2023-04-30T10:20:35;16.70;99.90
5850;DHT22;2951;47.712;9.400;2023-04-30T10:23:02;16.60;99.90
5850;DHT22;2951;47.712;9.400;2023-04-30T10:25:29;16.70;99.90
5850;DHT22;2951;47.712;9.400;2023-04-30T10:27:56;16.80;99.90
5850;DHT22;2951;47.712;9.400;2023-04-30T10:30:22;16.60;99.90
5850;DHT22;2951;47.712;9.400;2023-04-30T10:32:58;16.60;99.90
5850;DHT22;2951;47.712;9.400;2023-04-30T10:35:31;16.80;99.90
5850;DHT22;2951;47.712;9.400;2023-04-30T10:38:02;16.90;99.90
5850;DHT22;2951;47.712;9.400;2023-04-30T10:40:34;16.80;99.90
5850;DHT22;2951;47.712;9.400;2023-04-30T10:43:02;16.80;99.90
5850;DHT22;2951;47.712;9.400;2023-04-30T10:45:35;16.90;99.90
5850;DHT22;2951;47.712;9.400;2023-04-30T10:48:03;16.90;99.90
5850;DHT22;2951;47.712;9.400;2023-04-30T10:50:29;16.70;99.90
5850;DHT22;2951;47.712;9.400;2023-04-30T10:53:03;16.60;99.90
5850;DHT22;2951;47.712;9.400;2023-04-30T10:55:31;16.80;99.90
5850;DHT22;2951;47.712;9.400;2023-04-30T10:57:58;17.20;99.90
5850;DHT22;2951;47.712;9.400;2023-04-30T11:00:26;17.10;99.90
5850;DHT22;2951;47.712;9.400;2023-04-30T11:02:57;17.30;99.90
5850;DHT22;2951;47.712;9.400;2023-04-30T11:05:33;17.30;99.90
5850;DHT22;2951;47.712;9.400;2023-04-30T11:08:00;17.20;99.90
5850;DHT22;2951;47.712;9.400;2023-04-30T11:10:27;16.90;99.90
5850;DHT22;2951;47.712;9.400;2023-04-30T11:12:54;16.70;99.90
5850;DHT22;2951;47.712;9.400;2023-04-30T11:15:24;16.80;99.90
5850;DHT22;2951;47.712;9.400;2023-04-30T11:17:55;16.80;99.90
5850;DHT22;2951;47.712;9.400;2023-04-30T11:20:22;17.00;99.90
5850;DHT22;2951;47.712;9.400;2023-04-30T11:25:39;17.20;99.90
5850;DHT22;2951;47.712;9.400;2023-04-30T11:28:06;17.30;99.90
5850;DHT22;2951;47.712;9.400;2023-04-30T11:30:33;17.10;99.90
5850;DHT22;2951;47.712;9.400;2023-04-30T11:33:00;17.10;99.90
5850;DHT22;2951;47.712;9.400;2023-04-30T11:35:27;17.10;99.90
5850;DHT22;2951;47.712;9.400;2023-04-30T11:37:54;17.20;99.90
5850;DHT22;2951;47.712;9.400;2023-04-30T11:40:22;17.20;99.90
5850;DHT22;2951;47.712;9.400;2023-04-30T11:42:49;17.50;99.90
5850;DHT22;2951;47.712;9.400;2023-04-30T11:45:16;17.30;99.90
5850;DHT22;2951;47.712;9.400;2023-04-30T11:47:47;17.20;99.90
5850;DHT22;2951;47.712;9.400;2023-04-30T11:50:21;17.20;99.90
5850;DHT22;2951;47.712;9.400;2023-04-30T11:52:53;17.20;99.90
5850;DHT22;2951;47.712;9.400;2023-04-30T11:55:20;17.50;99.90
5850;DHT22;2951;47.712;9.400;2023-04-30T11:57:55;17.40;99.90
5850;DHT22;2951;47.712;9.400;2023-04-30T12:00:28;17.40;99.90
5850;DHT22;2951;47.712;9.400;2023-04-30T12:02:55;17.20;99.90
5850;DHT22;2951;47.712;9.400;2023-04-30T12:05:22;17.40;99.90
5850;DHT22;2951;47.712;9.400;2023-04-30T12:07:51;17.50;99.90
5850;DHT22;2951;47.712;9.400;2023-04-30T12:10:18;17.50;99.90
5850;DHT22;2951;47.712;9.400;2023-04-30T12:12:45;17.50;99.90
5850;DHT22;2951;47.712;9.400;2023-04-30T12:15:12;17.50;99.90
5850;DHT22;2951;47.712;9.400;2023-04-30T12:17:39;17.40;99.90
5850;DHT22;2951;47.712;9.400;2023-04-30T12:20:07;17.60;99.90
5850;DHT22;2951;47.712;9.400;2023-04-30T12:22:34;17.50;99.90
5850;DHT22;2951;47.712;9.400;2023-04-30T12:25:04;17.80;99.90
5850;DHT22;2951;47.712;9.400;2023-04-30T12:27:32;18.10;99.90
5850;DHT22;2951;47.712;9.400;2023-04-30T12:30:08;18.30;99.90
5850;DHT22;2951;47.712;9.400;2023-04-30T12:32:36;18.50;99.90
5850;DHT22;2951;47.712;9.400;2023-04-30T12:35:03;18.80;99.90
5850;DHT22;2951;47.712;9.400;2023-04-30T12:37:30;18.70;99.90
5850;DHT22;2951;47.712;9.400;2023-04-30T12:39:57;18.90;99.90
5850;DHT22;2951;47.712;9.400;2023-04-30T12:42:24;18.60;99.90
5850;DHT22;2951;47.712;9.400;2023-04-30T12:44:58;18.60;99.90
5850;DHT22;2951;47.712;9.400;2023-04-30T12:47:24;18.60;99.90
5850;DHT22;2951;47.712;9.400;2023-04-30T12:49:51;18.50;99.90
5850;DHT22;2951;47.712;9.400;2023-04-30T12:52:21;18.60;99.90
5850;DHT22;2951;47.712;9.400;2023-04-30T12:54:48;18.50;99.90
5850;DHT22;2951;47.712;9.400;2023-04-30T12:57:15;18.50;99.90
5850;DHT22;2951;47.712;9.400;2023-04-30T13:02:18;18.40;99.90
5850;DHT22;2951;47.712;9.400;2023-04-30T13:04:44;18.40;99.90
5850;DHT22;2951;47.712;9.400;2023-04-30T13:07:11;18.40;99.90
5850;DHT22;2951;47.712;9.400;2023-04-30T13:09:38;18.30;99.90
5850;DHT22;2951;47.712;9.400;2023-04-30T13:12:04;18.40;99.90
5850;DHT22;2951;47.712;9.400;2023-04-30T13:14:31;18.10;99.90
5850;DHT22;2951;47.712;9.400;2023-04-30T13:16:58;18.20;99.90
5850;DHT22;2951;47.712;9.400;2023-04-30T13:19:25;18.50;99.90
5850;DHT22;2951;47.712;9.400;2023-04-30T13:21:52;18.60;99.90
5850;DHT22;2951;47.712;9.400;2023-04-30T13:24:18;18.70;99.90
5850;DHT22;2951;47.712;9.400;2023-04-30T13:26:45;18.90;99.90
5850;DHT22;2951;47.712;9.400;2023-04-30T13:29:13;18.90;99.90
5850;DHT22;2951;47.712;9.400;2023-04-30T13:31:40;19.00;99.90
5850;DHT22;2951;47.712;9.400;2023-04-30T13:34:08;19.10;99.90
5850;DHT22;2951;47.712;9.400;2023-04-30T13:36:35;18.90;99.90
5850;DHT22;2951;47.712;9.400;2023-04-30T13:39:02;18.50;99.90
5850;DHT22;2951;47.712;9.400;2023-04-30T13:41:29;18.70;99.90
5850;DHT22;2951;47.712;9.400;2023-04-30T13:43:56;18.70;99.90
5850;DHT22;2951;47.712;9.400;2023-04-30T13:46:24;18.90;99.90
5850;DHT22;2951;47.712;9.400;2023-04-30T13:48:50;19.10;99.90
5850;DHT22;2951;47.712;9.400;2023-04-30T13:51:18;18.80;99.90
5850;DHT22;2951;47.712;9.400;2023-04-30T13:53:45;18.60;99.90
5850;DHT22;2951;47.712;9.400;2023-04-30T13:56:12;18.60;99.90
5850;DHT22;2951;47.712;9.400;2023-04-30T13:58:40;19.10;99.90
5850;DHT22;2951;47.712;9.400;2023-04-30T14:01:07;19.20;99.90
5850;DHT22;2951;47.712;9.400;2023-04-30T14:03:35;19.40;99.90
5850;DHT22;2951;47.712;9.400;2023-04-30T14:06:01;19.10;99.90
5850;DHT22;2951;47.712;9.400;2023-04-30T14:08:28;18.90;99.90
5850;DHT22;2951;47.712;9.400;2023-04-30T14:10:57;19.00;99.90
5850;DHT22;2951;47.712;9.400;2023-04-30T14:13:24;18.60;99.90
5850;DHT22;2951;47.712;9.400;2023-04-30T14:15:51;18.50;99.90
5850;DHT22;2951;47.712;9.400;2023-04-30T14:18:17;18.50;99.90
5850;DHT22;2951;47.712;9.400;2023-04-30T14:20:48;18.90;99.90
5850;DHT22;2951;47.712;9.400;2023-04-30T14:23:14;18.90;99.90
5850;DHT22;2951;47.712;9.400;2023-04-30T14:25:41;19.00;99.90
5850;DHT22;2951;47.712;9.400;2023-04-30T14:28:08;18.60;99.90
5850;DHT22;2951;47.712;9.400;2023-04-30T14:30:34;18.40;99.90
5850;DHT22;2951;47.712;9.400;2023-04-30T14:33:01;19.20;99.90
5850;DHT22;2951;47.712;9.400;2023-04-30T14:35:28;19.30;99.90
5850;DHT22;2951;47.712;9.400;2023-04-30T14:37:55;19.00;99.90
5850;DHT22;2951;47.712;9.400;2023-04-30T14:40:22;18.70;99.90
5850;DHT22;2951;47.712;9.400;2023-04-30T14:42:49;18.60;99.90
5850;DHT22;2951;47.712;9.400;2023-04-30T14:45:16;18.60;99.90
5850;DHT22;2951;47.712;9.400;2023-04-30T14:47:42;18.40;99.90
5850;DHT22;2951;47.712;9.400;2023-04-30T14:50:09;18.40;99.90
5850;DHT22;2951;47.712;9.400;2023-04-30T14:52:37;18.20;99.90
5850;DHT22;2951;47.712;9.400;2023-04-30T14:55:04;18.30;99.90
5850;DHT22;2951;47.712;9.400;2023-04-30T14:57:30;18.30;99.90
5850;DHT22;2951;47.712;9.400;2023-04-30T14:59:57;18.30;99.90
5850;DHT22;2951;47.712;9.400;2023-04-30T15:02:25;18.30;99.90
5850;DHT22;2951;47.712;9.400;2023-04-30T15:04:52;18.50;99.90
5850;DHT22;2951;47.712;9.400;2023-04-30T15:07:18;18.40;99.90
5850;DHT22;2951;47.712;9.400;2023-04-30T15:09:46;18.40;99.90
5850;DHT22;2951;47.712;9.400;2023-04-30T15:12:12;18.50;99.90
5850;DHT22;2951;47.712;9.400;2023-04-30T15:14:39;18.30;99.90
5850;DHT22;2951;47.712;9.400;2023-04-30T15:17:06;18.40;99.90
5850;DHT22;2951;47.712;9.400;2023-04-30T15:19:33;18.40;99.90
5850;DHT22;2951;47.712;9.400;2023-04-30T15:22:00;18.30;99.90
5850;DHT22;2951;47.712;9.400;2023-04-30T15:24:26;18.20;99.90
5850;DHT22;2951;47.712;9.400;2023-04-30T15:26:53;18.30;99.90
5850;DHT22;2951;47.712;9.400;2023-04-30T15:29:20;18.30;99.90
5850;DHT22;2951;47.712;9.400;2023-04-30T15:31:47;18.30;99.90
5850;DHT22;2951;47.712;9.400;2023-04-30T15:34:17;18.40;99.90
5850;DHT22;2951;47.712;9.400;2023-04-30T15:36:43;18.30;99.90
5850;DHT22;2951;47.712;9.400;2023-04-30T15:39:10;17.90;99.90
5850;DHT22;2951;47.712;9.400;2023-04-30T15:41:37;17.90;99.90
5850;DHT22;2951;47.712;9.400;2023-04-30T15:44:04;17.90;99.90
5850;DHT22;2951;47.712;9.400;2023-04-30T15:46:31;17.90;99.90
5850;DHT22;2951;47.712;9.400;2023-04-30T15:48:59;17.80;99.90
5850;DHT22;2951;47.712;9.400;2023-04-30T15:51:26;17.70;99.90
5850;DHT22;2951;47.712;9.400;2023-04-30T15:53:54;17.70;99.90
5850;DHT22;2951;47.712;9.400;2023-04-30T15:56:21;17.60;99.90
5850;DHT22;2951;47.712;9.400;2023-04-30T15:58:54;17.50;99.90
5850;DHT22;2951;47.712;9.400;2023-04-30T16:01:21;17.40;99.90
5850;DHT22;2951;47.712;9.400;2023-04-30T16:03:48;17.30;99.90
5850;DHT22;2951;47.712;9.400;2023-04-30T16:06:15;17.30;99.90
5850;DHT22;2951;47.712;9.400;2023-04-30T16:08:42;17.20;99.90
5850;DHT22;2951;47.712;9.400;2023-04-30T16:11:09;17.20;99.90
5850;DHT22;2951;47.712;9.400;2023-04-30T16:13:37;17.20;99.90
5850;DHT22;2951;47.712;9.400;2023-04-30T16:16:03;17.00;99.90
5850;DHT22;2951;47.712;9.400;2023-04-30T16:18:30;17.00;99.90
5850;DHT22;2951;47.712;9.400;2023-04-30T16:20:57;17.00;99.90
5850;DHT22;2951;47.712;9.400;2023-04-30T16:23:23;17.00;99.90
5850;DHT22;2951;47.712;9.400;2023-04-30T16:25:50;17.00;99.90